createdAt,value
2023-01-15T00:01:59.740Z,85.33
2023-01-15T00:04:26.582Z,85.41
2023-01-15T00:06:54.621Z,85.05
2023-01-15T00:09:21.255Z,85.07
2023-01-15T00:11:47.903Z,85.11
2023-01-15T00:14:14.605Z,85.70
2023-01-15T00:16:41.300Z,86.01
2023-01-15T00:19:12.139Z,86.30
2023-01-15T00:21:39.188Z,85.31
2023-01-15T00:24:24.626Z,85.85
2023-01-15T00:27:09.609Z,86.74
2023-01-15T00:29:36.269Z,86.83
2023-01-15T00:32:06.057Z,86.10
2023-01-15T00:34:33.693Z,86.52
2023-01-15T00:37:01.305Z,87.49
2023-01-15T00:39:28.167Z,88.35
2023-01-15T00:41:55.811Z,88.58
2023-01-15T00:44:22.754Z,88.04
2023-01-15T00:46:49.503Z,88.38
2023-01-15T00:49:16.329Z,88.87
2023-01-15T00:51:43.021Z,88.64
2023-01-15T00:54:09.798Z,89.14
2023-01-15T00:56:36.928Z,89.70
2023-01-15T00:59:04.990Z,89.24
2023-01-15T01:01:31.835Z,89.13
2023-01-15T01:03:58.671Z,88.67
2023-01-15T01:06:25.384Z,88.75
2023-01-15T01:08:52.078Z,88.85
2023-01-15T01:11:24.006Z,89.06
2023-01-15T01:13:50.820Z,88.92
2023-01-15T01:16:37.491Z,89.19
2023-01-15T01:19:10.168Z,88.31
2023-01-15T01:21:39.154Z,87.82
2023-01-15T01:24:07.997Z,87.75
2023-01-15T01:26:35.303Z,88.24
2023-01-15T01:29:02.290Z,88.04
2023-01-15T01:31:29.017Z,88.01
2023-01-15T01:33:57.596Z,88.07
2023-01-15T01:36:32.919Z,87.83
2023-01-15T01:39:00.406Z,87.71
2023-01-15T01:41:27.631Z,87.85
2023-01-15T01:44:05.932Z,86.14
2023-01-15T01:46:34.855Z,86.26
2023-01-15T01:49:08.363Z,86.08
2023-01-15T01:51:43.344Z,85.51
2023-01-15T01:54:12.777Z,85.53
2023-01-15T01:56:39.913Z,85.33
2023-01-15T01:59:07.673Z,85.56
2023-01-15T02:01:34.649Z,85.02
2023-01-15T02:04:02.738Z,84.68
2023-01-15T02:06:30.378Z,85.51
2023-01-15T02:08:57.030Z,85.14
2023-01-15T02:11:24.688Z,84.66
2023-01-15T02:14:40.651Z,84.66
2023-01-15T02:17:30.736Z,83.57
2023-01-15T02:20:21.353Z,84.56
2023-01-15T02:23:28.477Z,84.91
2023-01-15T02:26:32.229Z,85.48
2023-01-15T02:29:00.531Z,86.16
2023-01-15T02:31:38.817Z,85.75
2023-01-15T02:34:20.142Z,86.23
2023-01-15T02:36:50.505Z,86.63
2023-01-15T02:39:19.899Z,86.91
2023-01-15T02:41:52.004Z,86.54
2023-01-15T02:44:22.818Z,86.83
2023-01-15T02:46:50.183Z,86.06
2023-01-15T02:49:20.973Z,86.58
2023-01-15T02:51:58.420Z,86.76
2023-01-15T02:54:31.091Z,86.86
2023-01-15T02:57:00.219Z,86.16
2023-01-15T02:59:33.780Z,86.55
2023-01-15T03:02:03.228Z,86.67
2023-01-15T03:04:41.806Z,86.59
2023-01-15T03:07:23.516Z,86.60
2023-01-15T03:09:50.613Z,86.89
2023-01-15T03:12:27.923Z,86.34
2023-01-15T03:15:07.069Z,87.03
2023-01-15T03:17:47.550Z,86.08
2023-01-15T03:20:23.630Z,86.78
2023-01-15T03:23:00.589Z,86.27
2023-01-15T03:25:33.276Z,86.09
2023-01-15T03:28:03.087Z,84.07
2023-01-15T03:30:30.108Z,85.06
2023-01-15T03:32:57.189Z,85.60
2023-01-15T03:35:44.885Z,85.56
2023-01-15T03:38:13.008Z,86.28
2023-01-15T03:40:53.026Z,86.19
2023-01-15T03:43:42.761Z,85.87
2023-01-15T03:46:21.746Z,86.01
2023-01-15T03:49:33.349Z,85.73
2023-01-15T03:52:13.699Z,85.61
2023-01-15T03:55:00.430Z,86.62
2023-01-15T03:58:04.957Z,86.82
2023-01-15T04:00:39.081Z,87.23
2023-01-15T04:03:08.707Z,87.75
2023-01-15T04:05:37.780Z,88.10
2023-01-15T04:08:05.261Z,88.34
2023-01-15T04:10:31.867Z,88.32
2023-01-15T04:12:58.544Z,88.39
2023-01-15T04:15:25.266Z,87.97
2023-01-15T04:17:51.839Z,87.21
2023-01-15T04:20:19.316Z,86.47
2023-01-15T04:22:45.958Z,87.30
2023-01-15T04:25:12.720Z,87.57
2023-01-15T04:27:39.392Z,86.08
2023-01-15T04:30:07.038Z,86.15
2023-01-15T04:32:33.655Z,85.83
2023-01-15T04:35:00.288Z,83.63
2023-01-15T04:37:26.939Z,84.41
2023-01-15T04:39:53.492Z,85.29
2023-01-15T04:42:38.726Z,85.48
2023-01-15T04:45:06.035Z,83.05
2023-01-15T04:47:32.623Z,81.92
2023-01-15T04:49:59.290Z,83.24
2023-01-15T04:52:25.923Z,82.49
2023-01-15T04:54:55.030Z,82.80
2023-01-15T04:57:21.655Z,84.55
2023-01-15T04:59:48.283Z,86.40
2023-01-15T05:02:15.531Z,87.06
2023-01-15T05:04:42.511Z,87.54
2023-01-15T05:07:09.975Z,88.48
2023-01-15T05:09:36.700Z,89.70
2023-01-15T05:12:03.745Z,89.00
2023-01-15T05:14:30.380Z,88.35
2023-01-15T05:16:57.006Z,88.96
2023-01-15T05:19:23.692Z,88.56
2023-01-15T05:21:51.454Z,86.35
2023-01-15T05:24:18.327Z,86.90
2023-01-15T05:26:45.217Z,88.38
2023-01-15T05:29:12.716Z,90.48
2023-01-15T05:31:39.943Z,89.66
2023-01-15T05:34:06.626Z,90.52
2023-01-15T05:36:33.386Z,88.33
2023-01-15T05:39:01.916Z,88.68
2023-01-15T05:41:48.858Z,88.99
2023-01-15T05:44:24.152Z,89.87
2023-01-15T05:46:53.447Z,91.09
2023-01-15T05:49:22.464Z,90.26
2023-01-15T05:51:50.436Z,91.35
2023-01-15T05:54:23.104Z,90.17
2023-01-15T05:56:49.863Z,89.49
2023-01-15T05:59:17.999Z,89.23
2023-01-15T06:01:45.080Z,90.36
2023-01-15T06:04:14.260Z,91.12
2023-01-15T06:06:42.562Z,91.54
2023-01-15T06:09:09.798Z,91.93
2023-01-15T06:11:36.419Z,91.07
2023-01-15T06:14:03.276Z,90.35
2023-01-15T06:16:29.988Z,90.43
2023-01-15T06:19:00.813Z,90.93
2023-01-15T06:21:27.533Z,91.25
2023-01-15T06:23:54.462Z,92.50
2023-01-15T06:26:21.258Z,92.53
2023-01-15T06:28:47.958Z,92.79
2023-01-15T06:31:17.983Z,92.13
2023-01-15T06:33:45.021Z,91.08
2023-01-15T06:36:17.652Z,89.94
2023-01-15T06:38:44.868Z,90.67
2023-01-15T06:41:36.746Z,90.71
2023-01-15T06:44:22.768Z,89.03
2023-01-15T06:47:09.615Z,88.57
2023-01-15T06:49:37.451Z,87.87
2023-01-15T06:52:05.317Z,86.92
2023-01-15T06:54:32.865Z,86.35
2023-01-15T06:56:59.704Z,86.75
2023-01-15T06:59:26.395Z,87.80
2023-01-15T07:01:53.128Z,88.46
2023-01-15T07:04:19.839Z,89.83
2023-01-15T07:06:46.449Z,87.84
2023-01-15T07:09:13.182Z,86.27
2023-01-15T07:11:49.381Z,86.74
2023-01-15T07:14:24.367Z,86.27
2023-01-15T07:16:51.965Z,86.38
2023-01-15T07:19:19.282Z,86.21
2023-01-15T07:21:46.519Z,86.60
2023-01-15T07:24:13.950Z,88.02
2023-01-15T07:26:41.696Z,88.50
2023-01-15T07:29:08.338Z,88.57
2023-01-15T07:31:35.228Z,88.37
2023-01-15T07:34:01.887Z,87.17
2023-01-15T07:36:28.608Z,88.43
2023-01-15T07:38:55.273Z,86.80
2023-01-15T07:41:40.812Z,87.58
2023-01-15T07:44:29.338Z,89.47
2023-01-15T07:47:14.709Z,88.81
2023-01-15T07:49:46.358Z,86.97
2023-01-15T07:52:18.586Z,88.04
2023-01-15T07:54:46.345Z,88.25
2023-01-15T07:57:14.969Z,86.57
2023-01-15T07:59:42.254Z,87.61
2023-01-15T08:02:09.302Z,88.51
2023-01-15T08:04:36.440Z,89.55
2023-01-15T08:07:04.665Z,88.59
2023-01-15T08:09:31.482Z,88.13
2023-01-15T08:12:20.962Z,89.41
2023-01-15T08:15:06.504Z,89.92
2023-01-15T08:17:37.441Z,90.86
2023-01-15T08:20:06.070Z,89.95
2023-01-15T08:22:32.749Z,88.83
2023-01-15T08:24:59.344Z,89.70
2023-01-15T08:27:26.045Z,89.56
2023-01-15T08:29:53.230Z,89.57
2023-01-15T08:32:19.813Z,88.99
2023-01-15T08:34:46.469Z,89.05
2023-01-15T08:37:13.100Z,89.35
2023-01-15T08:39:39.710Z,89.79
2023-01-15T08:42:06.383Z,87.36
2023-01-15T08:44:33.216Z,88.00
2023-01-15T08:47:00.008Z,88.61
2023-01-15T08:49:26.640Z,89.13
2023-01-15T08:51:53.283Z,88.86
2023-01-15T08:54:22.305Z,90.67
2023-01-15T08:56:49.944Z,88.88
2023-01-15T08:59:17.115Z,88.94
2023-01-15T09:01:44.723Z,88.80
2023-01-15T09:04:16.488Z,88.61
2023-01-15T09:06:43.769Z,88.73
2023-01-15T09:09:11.076Z,88.69
2023-01-15T09:11:40.472Z,88.30
2023-01-15T09:15:00.225Z,88.14
2023-01-15T09:16:58.732Z,88.22
2023-01-15T09:19:25.349Z,88.93
2023-01-15T09:21:51.982Z,88.67
2023-01-15T09:24:18.556Z,89.19
2023-01-15T09:26:45.286Z,89.28
2023-01-15T09:29:11.916Z,89.36
2023-01-15T09:31:38.485Z,88.32
2023-01-15T09:34:05.194Z,88.67
2023-01-15T09:36:34.758Z,88.75
2023-01-15T09:39:02.474Z,87.84
2023-01-15T09:42:08.612Z,88.89
2023-01-15T09:45:26.257Z,87.10
2023-01-15T09:48:33.587Z,88.18
2023-01-15T09:51:16.617Z,88.90
2023-01-15T09:54:11.949Z,87.53
2023-01-15T09:56:39.432Z,88.95
2023-01-15T09:59:34.772Z,88.86
2023-01-15T10:02:12.714Z,87.27
2023-01-15T10:04:46.175Z,88.50
2023-01-15T10:07:27.963Z,87.91
2023-01-15T10:10:10.680Z,89.43
2023-01-15T10:12:43.378Z,88.31
2023-01-15T10:15:38.166Z,88.29
2023-01-15T10:18:08.194Z,88.00
2023-01-15T10:21:12.291Z,87.52
2023-01-15T10:23:47.733Z,87.13
2023-01-15T10:26:32.440Z,88.53
2023-01-15T10:29:30.566Z,88.43
2023-01-15T10:32:31.351Z,87.71
2023-01-15T10:35:40.440Z,88.04
2023-01-15T10:38:47.485Z,89.46
2023-01-15T10:41:52.427Z,89.76
2023-01-15T10:44:29.450Z,89.49
2023-01-15T10:47:01.590Z,89.22
2023-01-15T10:49:30.263Z,89.26
2023-01-15T10:52:03.187Z,89.38
2023-01-15T10:54:42.818Z,90.11
2023-01-15T10:57:56.408Z,89.21
2023-01-15T11:00:26.550Z,89.50
2023-01-15T11:03:08.378Z,89.07
2023-01-15T11:05:35.807Z,88.47
2023-01-15T11:08:39.310Z,88.67
2023-01-15T11:10:54.011Z,88.50
2023-01-15T11:13:42.160Z,88.74
2023-01-15T11:17:00.772Z,87.22
2023-01-15T11:19:39.802Z,87.65
2023-01-15T11:22:20.358Z,88.10
2023-01-15T11:24:54.686Z,87.98
2023-01-15T11:27:26.090Z,89.09
2023-01-15T11:30:03.882Z,89.08
2023-01-15T11:32:40.733Z,88.70
2023-01-15T11:35:25.867Z,90.16
2023-01-15T11:38:23.464Z,88.58
2023-01-15T11:40:59.509Z,89.30
2023-01-15T11:43:48.115Z,88.61
2023-01-15T11:46:49.917Z,88.98
2023-01-15T11:49:37.854Z,90.08
2023-01-15T11:52:11.687Z,89.52
2023-01-15T11:54:43.441Z,87.96
2023-01-15T11:57:11.055Z,89.15
2023-01-15T11:59:38.243Z,91.36
2023-01-15T12:02:18.995Z,91.64
2023-01-15T12:05:00.626Z,92.17
2023-01-15T12:07:28.963Z,91.95
2023-01-15T12:10:44.149Z,93.12
2023-01-15T12:13:21.393Z,93.51
2023-01-15T12:16:16.646Z,95.07
2023-01-15T12:19:09.294Z,95.54
2023-01-15T12:21:51.086Z,98.71
2023-01-15T12:24:40.560Z,98.89
2023-01-15T12:27:44.184Z,99.57
2023-01-15T12:30:56.684Z,100.00
2023-01-15T12:33:40.967Z,99.67
2023-01-15T12:36:53.998Z,100.00
2023-01-15T12:39:27.826Z,100.00
2023-01-15T12:42:16.618Z,100.00
2023-01-15T12:45:07.782Z,100.00
2023-01-15T12:47:46.043Z,100.00
2023-01-15T12:50:24.437Z,100.00
2023-01-15T12:52:58.943Z,100.00
2023-01-15T12:55:30.504Z,100.00
2023-01-15T12:58:00.887Z,100.00
2023-01-15T13:00:34.970Z,100.00
2023-01-15T13:03:30.341Z,99.25
2023-01-15T13:06:00.681Z,99.24
2023-01-15T13:08:44.758Z,99.80
2023-01-15T13:11:14.325Z,100.00
2023-01-15T13:13:42.500Z,100.00
2023-01-15T13:16:27.771Z,99.99
2023-01-15T13:19:37.317Z,98.14
2023-01-15T13:22:12.866Z,98.01
2023-01-15T13:25:34.728Z,100.00
2023-01-15T13:28:41.692Z,100.00
2023-01-15T13:31:46.426Z,100.00
2023-01-15T13:34:23.402Z,100.00
2023-01-15T13:36:51.129Z,100.00
2023-01-15T13:39:24.699Z,100.00
2023-01-15T13:42:12.144Z,100.00
2023-01-15T13:44:52.011Z,100.00
2023-01-15T13:47:23.688Z,100.00
2023-01-15T13:50:05.592Z,100.00
2023-01-15T13:52:37.180Z,100.00
2023-01-15T13:55:15.984Z,100.00
2023-01-15T13:57:43.642Z,100.00
2023-01-15T14:00:40.185Z,100.00
2023-01-15T14:03:29.718Z,100.00
2023-01-15T14:06:02.380Z,100.00
2023-01-15T14:08:46.068Z,100.00
2023-01-15T14:11:36.324Z,100.00
2023-01-15T14:15:00.057Z,100.00
2023-01-15T14:18:01.775Z,100.00
2023-01-15T14:20:54.376Z,100.00
2023-01-15T14:24:22.549Z,100.00
2023-01-15T14:27:06.225Z,100.00
2023-01-15T14:30:23.988Z,100.00
2023-01-15T14:33:06.072Z,100.00
2023-01-15T14:35:37.917Z,100.00
2023-01-15T14:38:08.691Z,100.00
2023-01-15T14:40:36.630Z,100.00
2023-01-15T14:43:17.786Z,100.00
2023-01-15T14:45:48.220Z,100.00
2023-01-15T14:48:39.192Z,100.00
2023-01-15T14:51:17.224Z,100.00
2023-01-15T14:53:53.153Z,100.00
2023-01-15T14:56:24.073Z,100.00
2023-01-15T14:58:59.798Z,100.00
2023-01-15T15:01:55.971Z,100.00
2023-01-15T15:04:45.332Z,100.00
2023-01-15T15:07:17.229Z,100.00
2023-01-15T15:09:47.733Z,100.00
2023-01-15T15:12:46.461Z,100.00
2023-01-15T15:16:00.139Z,100.00
2023-01-15T15:18:39.114Z,100.00
2023-01-15T15:21:16.926Z,100.00
2023-01-15T15:23:51.560Z,100.00
2023-01-15T15:26:31.631Z,100.00
2023-01-15T15:29:12.159Z,100.00
2023-01-15T15:31:48.134Z,100.00
2023-01-15T15:34:26.713Z,100.00
2023-01-15T15:36:54.593Z,100.00
2023-01-15T15:39:42.562Z,100.00
2023-01-15T15:42:59.451Z,100.00
2023-01-15T15:45:47.330Z,100.00
2023-01-15T15:48:38.742Z,100.00
2023-01-15T15:51:22.887Z,100.00
2023-01-15T15:53:49.498Z,100.00
2023-01-15T15:56:16.975Z,100.00
2023-01-15T15:58:44.127Z,100.00
2023-01-15T16:01:13.170Z,100.00
2023-01-15T16:03:50.574Z,100.00
2023-01-15T16:06:23.415Z,100.00
2023-01-15T16:08:56.320Z,99.49
2023-01-15T16:11:25.281Z,99.44
2023-01-15T16:13:53.623Z,100.00
2023-01-15T16:16:21.291Z,100.00
2023-01-15T16:18:53.169Z,100.00
2023-01-15T16:21:29.229Z,100.00
2023-01-15T16:24:04.850Z,100.00
2023-01-15T16:26:52.849Z,100.00
2023-01-15T16:29:26.156Z,100.00
2023-01-15T16:31:55.957Z,100.00
2023-01-15T16:34:26.369Z,100.00
2023-01-15T16:36:53.144Z,100.00
2023-01-15T16:39:43.773Z,100.00
2023-01-15T16:42:45.667Z,100.00
2023-01-15T16:45:33.311Z,100.00
2023-01-15T16:48:29.945Z,99.91
2023-01-15T16:50:58.281Z,99.55
2023-01-15T16:53:40.981Z,99.93
2023-01-15T16:56:25.407Z,100.00
2023-01-15T16:58:52.129Z,100.00
2023-01-15T17:01:34.083Z,100.00
2023-01-15T17:04:02.513Z,100.00
2023-01-15T17:06:29.656Z,100.00
2023-01-15T17:09:01.272Z,100.00
2023-01-15T17:11:30.393Z,100.00
2023-01-15T17:14:27.444Z,100.00
2023-01-15T17:17:27.471Z,100.00
2023-01-15T17:19:56.057Z,100.00
2023-01-15T17:22:31.979Z,100.00
2023-01-15T17:25:02.399Z,100.00
2023-01-15T17:27:36.769Z,99.47
2023-01-15T17:30:03.999Z,100.00
2023-01-15T17:32:35.894Z,99.62
2023-01-15T17:35:02.586Z,100.00
2023-01-15T17:37:29.227Z,99.16
2023-01-15T17:39:55.924Z,98.67
2023-01-15T17:42:23.437Z,99.81
2023-01-15T17:44:50.013Z,100.00
2023-01-15T17:47:16.580Z,100.00
2023-01-15T17:49:43.195Z,100.00
2023-01-15T17:52:19.780Z,100.00
2023-01-15T17:55:05.056Z,100.00
2023-01-15T17:57:50.313Z,100.00
2023-01-15T18:00:36.458Z,100.00
2023-01-15T18:03:21.950Z,100.00
2023-01-15T18:05:51.666Z,100.00
2023-01-15T18:08:21.097Z,100.00
2023-01-15T18:10:47.725Z,100.00
2023-01-15T18:13:14.327Z,100.00
2023-01-15T18:15:40.935Z,100.00
2023-01-15T18:18:07.565Z,100.00
2023-01-15T18:20:34.223Z,100.00
2023-01-15T18:23:00.785Z,100.00
2023-01-15T18:25:27.492Z,100.00
2023-01-15T18:27:54.148Z,100.00
2023-01-15T18:30:20.935Z,100.00
2023-01-15T18:32:47.547Z,100.00
2023-01-15T18:35:14.949Z,100.00
2023-01-15T18:37:41.638Z,100.00
2023-01-15T18:40:09.196Z,100.00
2023-01-15T18:42:57.129Z,100.00
2023-01-15T18:45:42.436Z,100.00
2023-01-15T18:48:09.086Z,100.00
2023-01-15T18:50:36.594Z,100.00
2023-01-15T18:53:03.207Z,100.00
2023-01-15T18:55:29.889Z,100.00
2023-01-15T18:57:57.107Z,100.00
2023-01-15T19:00:24.937Z,100.00
2023-01-15T19:02:52.141Z,100.00
2023-01-15T19:05:19.331Z,100.00
2023-01-15T19:07:46.344Z,100.00
2023-01-15T19:10:15.147Z,99.33
2023-01-15T19:12:41.909Z,99.81
2023-01-15T19:15:30.553Z,100.00
2023-01-15T19:18:15.352Z,100.00
2023-01-15T19:20:42.086Z,100.00
2023-01-15T19:23:09.329Z,100.00
2023-01-15T19:25:44.553Z,100.00
2023-01-15T19:28:15.827Z,98.72
2023-01-15T19:30:43.611Z,98.47
2023-01-15T19:33:10.703Z,97.50
2023-01-15T19:35:39.260Z,96.79
2023-01-15T19:38:08.457Z,96.53
2023-01-15T19:40:37.877Z,95.13
2023-01-15T19:43:33.718Z,95.82
2023-01-15T19:46:19.175Z,95.98
2023-01-15T19:49:04.648Z,94.85
2023-01-15T19:52:00.063Z,95.66
2023-01-15T19:54:44.980Z,95.17
2023-01-15T19:57:11.655Z,95.79
2023-01-15T19:59:38.239Z,94.48
2023-01-15T20:02:04.867Z,91.52
2023-01-15T20:04:31.466Z,89.89
2023-01-15T20:06:58.079Z,88.68
2023-01-15T20:09:24.622Z,86.82
2023-01-15T20:12:09.998Z,83.24
2023-01-15T20:14:36.623Z,84.28
2023-01-15T20:17:03.266Z,86.09
2023-01-15T20:19:30.107Z,88.08
2023-01-15T20:21:56.732Z,89.68
2023-01-15T20:24:23.381Z,90.33
2023-01-15T20:26:50.057Z,90.62
2023-01-15T20:29:16.683Z,91.03
2023-01-15T20:31:43.298Z,90.04
2023-01-15T20:34:09.959Z,89.34
2023-01-15T20:36:36.591Z,89.10
2023-01-15T20:39:03.332Z,90.39
2023-01-15T20:41:48.994Z,90.03
2023-01-15T20:44:34.369Z,89.70
2023-01-15T20:47:00.998Z,90.58
2023-01-15T20:49:28.952Z,89.25
2023-01-15T20:51:57.505Z,89.92
2023-01-15T20:54:25.515Z,90.32
2023-01-15T20:56:52.297Z,90.71
2023-01-15T20:59:18.912Z,89.27
2023-01-15T21:01:45.641Z,89.92
2023-01-15T21:04:13.674Z,89.67
2023-01-15T21:06:40.795Z,88.75
2023-01-15T21:09:07.443Z,88.30
2023-01-15T21:11:34.180Z,88.96
2023-01-15T21:14:00.938Z,87.89
2023-01-15T21:16:27.709Z,87.34
2023-01-15T21:18:54.386Z,83.67
2023-01-15T21:21:22.214Z,84.44
2023-01-15T21:23:48.898Z,84.19
2023-01-15T21:26:16.416Z,84.24
2023-01-15T21:28:44.695Z,82.73
2023-01-15T21:31:12.735Z,81.77
2023-01-15T21:33:39.937Z,82.80
2023-01-15T21:36:08.278Z,82.96
2023-01-15T21:38:35.290Z,83.24
2023-01-15T21:41:13.783Z,84.58
2023-01-15T21:44:00.008Z,85.18
2023-01-15T21:46:29.660Z,87.05
2023-01-15T21:48:57.510Z,87.57
2023-01-15T21:51:25.458Z,88.20
2023-01-15T21:53:53.121Z,88.29
2023-01-15T21:56:20.385Z,89.05
2023-01-15T21:58:47.006Z,88.91
2023-01-15T22:01:15.894Z,90.05
2023-01-15T22:03:42.610Z,90.09
2023-01-15T22:06:10.415Z,90.20
2023-01-15T22:08:37.061Z,89.51
2023-01-15T22:11:08.986Z,89.54
2023-01-15T22:13:36.873Z,89.52
2023-01-15T22:16:06.628Z,88.45
2023-01-15T22:18:34.217Z,89.35
2023-01-15T22:21:03.910Z,89.04
2023-01-15T22:23:30.886Z,88.15
2023-01-15T22:25:57.500Z,88.26
2023-01-15T22:28:24.415Z,88.34
2023-01-15T22:30:51.081Z,88.62
2023-01-15T22:33:17.783Z,87.72
2023-01-15T22:35:44.434Z,87.12
2023-01-15T22:38:11.239Z,86.36
2023-01-15T22:40:37.959Z,85.86
2023-01-15T22:43:04.589Z,85.17
2023-01-15T22:45:31.207Z,84.77
2023-01-15T22:47:57.860Z,84.01
2023-01-15T22:50:24.502Z,85.59
2023-01-15T22:52:51.133Z,86.42
2023-01-15T22:55:17.762Z,86.48
2023-01-15T22:57:44.437Z,86.99
2023-01-15T23:00:11.715Z,86.12
2023-01-15T23:02:58.045Z,87.31
2023-01-15T23:05:24.877Z,86.40
2023-01-15T23:07:51.625Z,87.11
2023-01-15T23:10:18.390Z,85.60
2023-01-15T23:12:45.034Z,85.96
2023-01-15T23:15:13.490Z,85.18
2023-01-15T23:17:40.780Z,84.94
2023-01-15T23:20:08.808Z,82.81
2023-01-15T23:22:35.750Z,82.24
2023-01-15T23:25:02.482Z,83.01
2023-01-15T23:27:29.077Z,83.59
2023-01-15T23:29:55.678Z,83.27
2023-01-15T23:32:22.393Z,83.20
2023-01-15T23:34:49.049Z,82.34
2023-01-15T23:37:16.231Z,83.13
2023-01-15T23:39:42.875Z,83.43
2023-01-15T23:42:29.389Z,83.42
2023-01-15T23:45:14.513Z,83.14
2023-01-15T23:47:41.117Z,84.62
2023-01-15T23:50:08.449Z,84.13
2023-01-15T23:52:35.121Z,83.33
2023-01-15T23:55:01.717Z,83.68
2023-01-15T23:57:28.354Z,82.99
2023-01-15T23:59:54.965Z,83.08
